createdAt,value
2023-02-17T00:04:38.043Z,18.13
2023-02-17T00:09:44.119Z,16.91
2023-02-17T00:14:50.438Z,16.15
2023-02-17T00:19:56.546Z,16.26
2023-02-17T00:25:02.762Z,16.15
2023-02-17T00:30:08.867Z,15.79
2023-02-17T00:35:15.061Z,15.16
2023-02-17T00:40:21.175Z,15.60
2023-02-17T00:45:27.403Z,15.30
2023-02-17T00:50:33.539Z,14.08
2023-02-17T00:55:40.132Z,14.77
2023-02-17T01:00:46.195Z,14.06
2023-02-17T01:05:52.361Z,13.68
2023-02-17T01:10:58.458Z,13.93
2023-02-17T01:16:04.993Z,12.81
2023-02-17T01:21:10.208Z,13.57
2023-02-17T01:26:16.425Z,12.30
2023-02-17T01:31:22.661Z,12.16
2023-02-17T01:37:00.196Z,13.49
2023-02-17T01:42:06.266Z,11.86
2023-02-17T01:47:12.443Z,11.60
2023-02-17T01:52:18.508Z,11.77
2023-02-17T01:57:24.754Z,10.85
2023-02-17T02:02:31.046Z,11.13
2023-02-17T02:07:37.342Z,11.32
2023-02-17T02:12:43.447Z,11.55
2023-02-17T02:17:49.644Z,11.60
2023-02-17T02:22:55.734Z,10.98
2023-02-17T02:28:02.625Z,11.29
2023-02-17T02:33:08.790Z,11.29
2023-02-17T02:38:14.967Z,11.63
2023-02-17T02:43:21.055Z,11.92
2023-02-17T02:48:27.238Z,11.39
2023-02-17T02:53:33.384Z,11.17
2023-02-17T02:58:40.305Z,11.66
2023-02-17T03:03:46.384Z,11.88
2023-02-17T03:08:52.606Z,11.82
2023-02-17T03:13:58.677Z,11.92
2023-02-17T03:19:05.055Z,12.23
2023-02-17T03:24:11.241Z,12.70
2023-02-17T03:29:17.823Z,13.33
2023-02-17T03:34:23.916Z,14.31
2023-02-17T03:39:30.123Z,14.90
2023-02-17T03:44:36.249Z,14.95
2023-02-17T03:49:42.465Z,15.37
2023-02-17T03:54:51.718Z,16.76
2023-02-17T03:59:57.914Z,16.30
2023-02-17T04:05:03.985Z,17.77
2023-02-17T04:10:10.453Z,17.84
2023-02-17T04:15:16.550Z,18.22
2023-02-17T04:20:22.754Z,17.54
2023-02-17T04:25:28.873Z,17.58
2023-02-17T04:30:35.170Z,18.31
2023-02-17T04:35:41.478Z,17.34
2023-02-17T04:40:48.074Z,17.58
2023-02-17T04:45:54.378Z,18.15
2023-02-17T04:51:00.526Z,17.60
2023-02-17T04:56:06.910Z,17.66
2023-02-17T05:01:12.643Z,26.18
2023-02-17T05:06:18.867Z,17.30
2023-02-17T05:11:25.071Z,17.68
2023-02-17T05:16:31.181Z,17.79
2023-02-17T05:21:37.390Z,17.82
2023-02-17T05:26:43.684Z,18.27
2023-02-17T05:31:50.336Z,18.20
2023-02-17T05:36:56.560Z,17.82
2023-02-17T05:42:03.806Z,18.05
2023-02-17T05:47:09.929Z,17.81
2023-02-17T05:52:16.363Z,17.36
2023-02-17T05:57:24.481Z,16.99
2023-02-17T06:02:31.145Z,16.96
2023-02-17T06:07:37.401Z,16.28
2023-02-17T06:12:43.547Z,15.41
2023-02-17T06:17:49.909Z,15.66
2023-02-17T06:22:56.239Z,15.05
2023-02-17T06:28:02.489Z,15.29
2023-02-17T06:33:08.669Z,15.03
2023-02-17T06:38:14.885Z,13.90
2023-02-17T06:43:22.321Z,13.57
2023-02-17T06:48:30.405Z,12.75
2023-02-17T06:53:37.023Z,12.07
2023-02-17T06:58:43.140Z,11.64
2023-02-17T07:03:49.392Z,11.94
2023-02-17T07:08:55.502Z,11.67
2023-02-17T07:14:04.054Z,10.77
2023-02-17T07:19:10.267Z,10.11
2023-02-17T07:24:16.552Z,9.87
2023-02-17T07:29:22.707Z,9.40
2023-02-17T07:34:28.900Z,9.99
2023-02-17T07:39:34.994Z,10.26
2023-02-17T07:44:41.371Z,10.73
2023-02-17T07:49:47.479Z,11.39
2023-02-17T07:54:53.640Z,11.92
2023-02-17T07:59:59.775Z,12.45
2023-02-17T08:05:06.540Z,12.82
2023-02-17T08:10:13.720Z,13.07
2023-02-17T08:15:20.216Z,13.39
2023-02-17T08:20:26.388Z,14.53
2023-02-17T08:25:32.548Z,14.92
2023-02-17T08:30:38.784Z,15.18
2023-02-17T08:35:44.933Z,16.69
2023-02-17T08:40:51.491Z,16.90
2023-02-17T08:45:59.569Z,16.36
2023-02-17T08:51:05.816Z,16.62
2023-02-17T08:56:12.819Z,16.81
2023-02-17T09:01:18.966Z,16.60
2023-02-17T09:06:25.434Z,16.86
2023-02-17T09:11:31.771Z,16.18
2023-02-17T09:16:41.108Z,16.42
2023-02-17T09:21:44.409Z,14.76
2023-02-17T09:26:50.557Z,15.08
2023-02-17T09:31:58.059Z,15.33
2023-02-17T09:37:04.604Z,14.76
2023-02-17T09:42:10.753Z,14.80
2023-02-17T09:47:16.913Z,15.33
2023-02-17T09:52:23.007Z,14.69
2023-02-17T09:57:29.145Z,14.23
2023-02-17T10:02:35.345Z,14.15
2023-02-17T10:07:41.623Z,14.22
2023-02-17T10:12:47.805Z,13.83
2023-02-17T10:17:54.008Z,13.17
2023-02-17T10:23:00.134Z,13.05
2023-02-17T10:28:08.356Z,12.25
2023-02-17T10:33:15.515Z,12.35
2023-02-17T10:38:21.887Z,11.87
2023-02-17T10:43:27.941Z,11.49
2023-02-17T10:48:34.368Z,10.60
2023-02-17T10:53:40.453Z,10.65
2023-02-17T10:58:46.654Z,10.30
2023-02-17T11:03:52.776Z,10.24
2023-02-17T11:08:58.956Z,10.08
2023-02-17T11:14:05.033Z,9.52
2023-02-17T11:19:11.201Z,9.28
2023-02-17T11:24:17.314Z,9.10
2023-02-17T11:29:23.623Z,8.99
2023-02-17T11:34:29.704Z,8.25
2023-02-17T11:39:35.934Z,8.15
2023-02-17T11:44:42.092Z,8.02
2023-02-17T11:49:48.328Z,8.18
2023-02-17T11:54:54.432Z,7.46
2023-02-17T12:00:00.610Z,6.84
2023-02-17T12:05:06.749Z,6.91
2023-02-17T12:10:12.944Z,10.73
2023-02-17T12:15:19.056Z,6.19
2023-02-17T12:20:25.306Z,6.34
2023-02-17T12:25:31.390Z,5.60
2023-02-17T12:30:37.797Z,4.93
2023-02-17T12:35:43.723Z,4.86
2023-02-17T12:40:49.878Z,4.63
2023-02-17T12:45:56.030Z,4.70
2023-02-17T12:51:02.308Z,4.51
2023-02-17T12:56:08.599Z,4.42
2023-02-17T13:01:14.795Z,4.10
2023-02-17T13:06:20.865Z,4.14
2023-02-17T13:11:26.997Z,3.83
2023-02-17T13:16:33.095Z,3.87
2023-02-17T13:21:39.349Z,3.50
2023-02-17T13:26:45.448Z,3.55
2023-02-17T13:31:51.752Z,3.33
2023-02-17T13:36:57.736Z,3.02
2023-02-17T13:42:03.922Z,3.34
2023-02-17T13:47:09.996Z,3.26
2023-02-17T13:52:16.186Z,3.08
2023-02-17T13:57:22.645Z,2.87
2023-02-17T14:02:36.181Z,2.63
2023-02-17T14:07:34.334Z,2.32
2023-02-17T14:12:40.609Z,2.32
2023-02-17T14:17:46.820Z,2.16
2023-02-17T14:23:04.180Z,2.03
2023-02-17T14:27:56.102Z,1.97
2023-02-17T14:33:02.196Z,1.80
2023-02-17T14:38:08.253Z,1.69
2023-02-17T14:43:16.728Z,1.70
2023-02-17T14:48:27.387Z,1.82
2023-02-17T14:53:31.205Z,1.67
2023-02-17T14:58:39.687Z,1.53
2023-02-17T15:03:45.855Z,2.09
2023-02-17T15:08:57.928Z,1.64
2023-02-17T15:13:54.443Z,1.67
2023-02-17T15:19:00.656Z,1.88
2023-02-17T15:24:06.865Z,1.86
2023-02-17T15:29:13.218Z,1.72
2023-02-17T15:34:19.536Z,2.14
2023-02-17T15:39:25.796Z,2.16
2023-02-17T15:44:32.096Z,2.21
2023-02-17T15:49:38.272Z,2.13
2023-02-17T15:54:44.676Z,1.98
2023-02-17T15:59:50.834Z,2.09
2023-02-17T16:04:58.262Z,2.22
2023-02-17T16:10:04.406Z,2.05
2023-02-17T16:15:10.775Z,2.22
2023-02-17T16:20:17.002Z,2.23
2023-02-17T16:25:23.327Z,2.31
2023-02-17T16:30:29.492Z,2.39
2023-02-17T16:35:35.988Z,2.40
2023-02-17T16:40:42.159Z,2.51
2023-02-17T16:45:48.964Z,2.24
2023-02-17T16:50:55.021Z,2.19
2023-02-17T16:56:01.129Z,2.28
2023-02-17T17:01:07.194Z,2.85
2023-02-17T17:06:17.338Z,2.17
2023-02-17T17:11:13.430Z,2.31
2023-02-17T17:16:19.638Z,2.45
2023-02-17T17:21:26.870Z,2.60
2023-02-17T17:26:33.148Z,2.82
2023-02-17T17:31:39.554Z,2.52
2023-02-17T17:36:45.597Z,2.91
2023-02-17T17:41:51.719Z,2.61
2023-02-17T17:46:57.867Z,2.67
2023-02-17T17:52:03.952Z,2.96
2023-02-17T17:57:10.089Z,3.50
2023-02-17T18:02:16.182Z,2.81
2023-02-17T18:07:22.519Z,2.75
2023-02-17T18:12:29.700Z,3.02
2023-02-17T18:17:37.306Z,2.70
2023-02-17T18:22:48.451Z,2.71
2023-02-17T18:27:44.605Z,2.94
2023-02-17T18:32:51.784Z,3.06
2023-02-17T18:37:59.954Z,2.79
2023-02-17T18:43:06.340Z,3.06
2023-02-17T18:48:12.792Z,2.86
2023-02-17T18:53:19.234Z,3.01
2023-02-17T18:58:25.676Z,3.07
2023-02-17T19:03:31.928Z,2.88
2023-02-17T19:08:38.234Z,2.87
2023-02-17T19:13:44.296Z,2.92
2023-02-17T19:18:50.828Z,2.60
2023-02-17T19:23:57.997Z,2.67
2023-02-17T19:29:04.301Z,2.54
2023-02-17T19:34:11.919Z,2.94
2023-02-17T19:39:18.120Z,3.06
2023-02-17T19:44:24.390Z,2.86
2023-02-17T19:49:31.599Z,2.71
2023-02-17T19:54:37.670Z,2.93
2023-02-17T19:59:43.962Z,2.59
2023-02-17T20:04:56.244Z,2.59
2023-02-17T20:09:53.645Z,2.48
2023-02-17T20:14:59.759Z,2.54
2023-02-17T20:20:06.017Z,2.49
2023-02-17T20:25:12.099Z,2.56
2023-02-17T20:30:18.558Z,2.64
2023-02-17T20:35:26.880Z,2.25
2023-02-17T20:40:33.243Z,2.39
2023-02-17T20:45:39.387Z,2.39
2023-02-17T20:50:46.442Z,2.42
2023-02-17T20:55:51.427Z,2.39
2023-02-17T21:00:57.662Z,2.77
2023-02-17T21:06:03.647Z,2.50
2023-02-17T21:11:11.013Z,2.43
2023-02-17T21:16:24.003Z,2.50
2023-02-17T21:21:20.405Z,2.28
2023-02-17T21:26:26.654Z,2.46
2023-02-17T21:31:32.946Z,2.56
2023-02-17T21:36:39.263Z,2.43
2023-02-17T21:41:45.914Z,2.92
2023-02-17T21:46:52.307Z,2.20
2023-02-17T21:51:58.850Z,2.40
2023-02-17T21:57:04.992Z,2.56
2023-02-17T22:02:11.139Z,2.62
2023-02-17T22:07:17.292Z,2.49
2023-02-17T22:12:23.541Z,2.49
2023-02-17T22:17:29.833Z,2.11
2023-02-17T22:22:36.151Z,2.66
2023-02-17T22:27:43.313Z,2.48
2023-02-17T22:32:50.529Z,2.43
2023-02-17T22:37:56.586Z,2.50
2023-02-17T22:43:04.083Z,2.22
2023-02-17T22:48:11.332Z,2.38
2023-02-17T22:53:17.555Z,2.37
2023-02-17T22:58:23.646Z,2.50
2023-02-17T23:03:29.897Z,2.74
2023-02-17T23:08:36.068Z,2.51
2023-02-17T23:13:42.433Z,2.45
2023-02-17T23:18:48.669Z,2.00
2023-02-17T23:23:55.028Z,2.22
2023-02-17T23:29:01.201Z,2.34
2023-02-17T23:34:07.654Z,2.11
2023-02-17T23:39:13.778Z,2.58
2023-02-17T23:44:20.116Z,2.26
2023-02-17T23:49:26.218Z,2.54
2023-02-17T23:54:32.676Z,2.58
2023-02-17T23:59:38.889Z,2.70
